Leader, Canada
Current Conditions -  °F | °C
As of 6:00 PM on Friday 28 Nov 2014 (Local Time) from CYKY Reporting Station
Light Snow Light Snow  
Wind Chill: -22°   Ceiling: 500
Heat Index:   Visibility: 15mi
Dew Point: -6°   Wind: 20mph
Humidity: 78%   Direction: 340°NNW
Pressure: 29.62"   Gusts: NA
Location:  50.89°N, 109.54°W
Report Text: CYKY 290000Z 34017KT 15SM -SN DRSN OVC005 M18/M21 A2962 RMK SC8 /SO1/ SLP087
Loading
Personal Weather Stations






























Interactive Weather Map New forecast layout! Learn more

10-Day Weather Forecast

Advertisements
Track Severe Weather on mobile